METAR Data
IDs: Format: Raw Decoded Include TAF

Data at: 0126 UTC 22 Jan 2020

LTAF 220050Z 01008KT CAVOK 09/M06 Q1021 NOSIG RMK RWY23 03008KT